Time;durP1;ratioP1;P1;durP2;ratioP2;P2;SDS_P1;SDS_P2;PMS_P1;PMS_P2;Temp;Humidity;BMP_temperature;BMP_pressure;BME280_temperature;BME280_humidity;BME280_pressure;Samples;Min_cycle;Max_cycle;Signal;HPM_P1;HPM_P2
2024/03/04 00:00:14;;;;;;;3.63;1.40;;;;;;;5.92;100.00;100924.22;5090463;28;20038;-81
2024/03/04 00:02:39;;;;;;;3.38;1.50;;;;;;;5.92;100.00;100928.66;5089948;28;20035;-81
2024/03/04 00:05:05;;;;;;;7.13;1.55;;;;;;;5.93;100.00;100935.66;5072153;28;20035;-81
2024/03/04 00:07:30;;;;;;;5.97;1.73;;;;;;;5.93;100.00;100936.47;5090127;28;20452;-81
2024/03/04 00:09:56;;;;;;;5.55;1.75;;;;;;;5.93;100.00;100948.84;5089954;28;20459;-82
2024/03/04 00:12:21;;;;;;;6.47;1.40;;;;;;;5.94;100.00;100946.09;5090262;28;20380;-81
2024/03/04 00:14:47;;;;;;;8.73;1.33;;;;;;;5.95;100.00;100945.13;5090029;28;20048;-81
2024/03/04 00:17:12;;;;;;;7.60;1.30;;;;;;;5.96;100.00;100948.63;5071932;28;20456;-81
2024/03/04 00:19:37;;;;;;;5.40;1.40;;;;;;;5.95;100.00;100955.69;5089956;28;20028;-82
2024/03/04 00:22:03;;;;;;;3.13;1.20;;;;;;;5.94;100.00;100961.94;5092800;28;20030;-81
2024/03/04 00:24:29;;;;;;;8.70;1.55;;;;;;;5.93;100.00;100956.78;5093712;28;20063;-81
2024/03/04 00:26:54;;;;;;;4.40;1.35;;;;;;;5.93;100.00;100957.59;5093768;28;20063;-82
2024/03/04 00:29:21;;;;;;;9.15;1.45;;;;;;;5.94;100.00;100954.03;5093813;28;20481;-81
2024/03/04 00:31:46;;;;;;;5.13;1.27;;;;;;;5.92;100.00;100955.91;5093490;28;20053;-81
2024/03/04 00:34:12;;;;;;;4.97;1.50;;;;;;;5.90;100.00;100957.81;5075417;28;20388;-81
2024/03/04 00:36:38;;;;;;;8.85;1.20;;;;;;;5.90;100.00;100972.81;5093598;28;20115;-81
2024/03/04 00:39:03;;;;;;;2.33;1.15;;;;;;;5.91;100.00;100977.13;5093378;28;20058;-83
2024/03/04 00:41:29;;;;;;;6.68;1.00;;;;;;;5.91;100.00;100985.06;5093628;28;20110;-81
2024/03/04 00:43:55;;;;;;;2.55;1.23;;;;;;;5.92;100.00;100978.84;5093250;28;20024;-81
2024/03/04 00:46:22;;;;;;;2.80;0.73;;;;;;;5.92;100.00;100970.91;5093596;28;20032;-81
2024/03/04 00:48:49;;;;;;;2.28;0.90;;;;;;;5.91;100.00;100966.56;5093070;28;20439;-81
2024/03/04 00:51:15;;;;;;;4.50;1.17;;;;;;;5.87;100.00;100965.97;5093486;28;20028;-81
2024/03/04 00:53:46;;;;;;;8.07;0.90;;;;;;;5.86;100.00;100961.63;5093788;28;20051;-82
2024/03/04 00:56:12;;;;;;;3.90;1.13;;;;;;;5.85;100.00;100959.91;5093664;28;20387;-82
2024/03/04 00:58:38;;;;;;;4.65;1.10;;;;;;;5.83;100.00;100972.38;5093338;28;20012;-82
2024/03/04 01:01:05;;;;;;;4.22;1.02;;;;;;;5.80;100.00;100978.72;5092996;28;20467;-82
2024/03/04 01:03:31;;;;;;;8.90;1.23;;;;;;;5.79;100.00;100977.03;5074791;28;20056;-81
2024/03/04 01:05:58;;;;;;;9.02;1.35;;;;;;;5.77;100.00;100978.09;5092694;28;20043;-82
2024/03/04 01:08:24;;;;;;;5.32;1.02;;;;;;;5.77;100.00;100976.28;5092992;28;20040;-81
2024/03/04 01:10:50;;;;;;;5.03;0.95;;;;;;;5.76;100.00;100979.03;5092513;28;20388;-83
2024/03/04 01:13:15;;;;;;;5.95;1.08;;;;;;;5.76;100.00;100968.47;5074492;28;20035;-81
2024/03/04 01:15:42;;;;;;;4.35;0.90;;;;;;;5.76;100.00;100979.03;5093115;28;20046;-81
2024/03/04 01:18:10;;;;;;;4.60;0.82;;;;;;;5.75;100.00;100974.72;5092468;28;20099;-81
2024/03/04 01:20:38;;;;;;;4.38;0.80;;;;;;;5.73;100.00;100979.25;5074215;28;20469;-82
2024/03/04 01:23:05;;;;;;;3.80;1.17;;;;;;;5.73;100.00;100985.38;5092136;28;20024;-81
2024/03/04 01:25:31;;;;;;;2.35;0.80;;;;;;;5.71;100.00;100986.44;5092829;28;20028;-81
2024/03/04 01:27:57;;;;;;;1.60;0.70;;;;;;;5.71;100.00;100991.72;5092005;28;20332;-80
2024/03/04 01:30:24;;;;;;;2.42;0.80;;;;;;;5.71;100.00;100994.34;5092329;28;20119;-81
2024/03/04 01:32:50;;;;;;;5.22;1.02;;;;;;;5.70;100.00;100996.13;5091378;28;20031;-81
2024/03/04 01:35:16;;;;;;;4.45;0.82;;;;;;;5.70;100.00;101001.41;5092392;28;20019;-81
2024/03/04 01:37:42;;;;;;;4.78;1.00;;;;;;;5.70;100.00;100998.78;5092369;28;20058;-81
2024/03/04 01:40:08;;;;;;;7.10;1.23;;;;;;;5.70;100.00;101008.50;5092308;28;20388;-80
2024/03/04 01:42:34;;;;;;;3.33;1.27;;;;;;;5.68;100.00;101002.47;5092475;28;20382;-81
2024/03/04 01:44:59;;;;;;;5.53;1.05;;;;;;;5.67;100.00;101006.06;5091712;28;20443;-81
2024/03/04 01:47:25;;;;;;;4.82;1.25;;;;;;;5.66;100.00;101010.50;5092145;28;20051;-80
2024/03/04 01:49:52;;;;;;;3.42;1.10;;;;;;;5.65;100.00;101014.91;5073203;28;20023;-81
2024/03/04 01:52:19;;;;;;;4.47;1.10;;;;;;;5.65;100.00;101008.81;5092213;28;20024;-80
2024/03/04 01:54:47;;;;;;;5.35;1.10;;;;;;;5.65;100.00;101016.72;5092105;28;20115;-80
2024/03/04 01:57:17;;;;;;;8.00;1.00;;;;;;;5.62;100.00;101015.13;5091489;28;20417;-79
2024/03/04 01:59:47;;;;;;;4.65;0.95;;;;;;;5.62;100.00;101023.06;5091969;28;20031;-81
2024/03/04 02:02:13;;;;;;;3.22;1.15;;;;;;;5.62;100.00;101022.22;5091539;28;20561;-81
2024/03/04 02:04:40;;;;;;;0.80;0.70;;;;;;;5.58;100.00;101032.16;5091725;28;20036;-81
2024/03/04 02:07:06;;;;;;;3.00;0.88;;;;;;;5.58;100.00;101026.00;5091324;28;20044;-81
2024/03/04 02:09:35;;;;;;;4.72;0.98;;;;;;;5.59;100.00;101028.53;5073494;28;20035;-80
2024/03/04 02:12:03;;;;;;;3.90;1.20;;;;;;;5.59;100.00;101028.53;5091206;28;20095;-80
2024/03/04 02:14:29;;;;;;;5.38;0.88;;;;;;;5.59;100.00;101039.09;5091729;28;20036;-80
2024/03/04 02:16:54;;;;;;;5.05;1.00;;;;;;;5.61;100.00;101041.63;5091177;28;20030;-81
2024/03/04 02:19:20;;;;;;;3.00;1.02;;;;;;;5.62;100.00;101048.63;5091598;28;20041;-80
2024/03/04 02:21:51;;;;;;;3.03;0.80;;;;;;;5.62;100.00;101048.63;5091562;28;20076;-80
2024/03/04 02:24:17;;;;;;;2.80;0.98;;;;;;;5.58;100.00;101053.25;5091198;28;20104;-80
2024/03/04 02:26:43;;;;;;;9.38;0.93;;;;;;;5.56;100.00;101046.38;5073089;28;20050;-80
2024/03/04 02:29:10;;;;;;;6.85;0.90;;;;;;;5.54;100.00;101048.25;5090705;28;20035;-80
2024/03/04 02:31:36;;;;;;;2.00;1.00;;;;;;;5.50;100.00;101052.91;5073272;28;20042;-80
2024/03/04 02:34:04;;;;;;;7.15;0.88;;;;;;;5.49;100.00;101051.22;5090846;28;20024;-80
2024/03/04 02:36:30;;;;;;;3.42;0.90;;;;;;;5.48;100.00;101058.28;5072841;28;20032;-80
2024/03/04 02:38:56;;;;;;;4.13;0.77;;;;;;;5.47;100.00;101058.38;5072999;28;20260;-81
2024/03/04 02:41:26;;;;;;;4.15;0.80;;;;;;;5.45;100.00;101057.66;5090714;28;20024;-80
2024/03/04 02:43:51;;;;;;;4.55;0.63;;;;;;;5.43;100.00;101052.47;5090819;28;20096;-80
2024/03/04 02:46:18;;;;;;;2.67;0.85;;;;;;;5.40;100.00;101052.66;5090233;28;20066;-81
2024/03/04 02:48:44;;;;;;;3.17;0.90;;;;;;;5.39;100.00;101044.84;5072986;28;20036;-81
2024/03/04 02:51:09;;;;;;;3.85;0.70;;;;;;;5.37;100.00;101052.84;5090519;28;20518;-81
2024/03/04 02:53:35;;;;;;;7.90;0.70;;;;;;;5.34;100.00;101049.59;5091018;28;20051;-83
2024/03/04 02:56:00;;;;;;;2.00;0.65;;;;;;;5.36;100.00;101058.22;5090763;28;20026;-83
2024/03/04 02:58:27;;;;;;;2.55;0.82;;;;;;;5.33;100.00;101066.34;5090980;28;20480;-82
2024/03/04 03:00:53;;;;;;;2.97;0.63;;;;;;;5.29;100.00;101071.81;5091123;28;20106;-80
2024/03/04 03:03:22;;;;;;;6.38;0.88;;;;;;;5.27;100.00;101078.16;5090535;28;20448;-80
2024/03/04 03:05:48;;;;;;;5.57;0.98;;;;;;;5.25;100.00;101074.75;5090716;28;20028;-80
2024/03/04 03:08:14;;;;;;;2.38;0.63;;;;;;;5.20;100.00;101085.63;5090674;28;20104;-82
2024/03/04 03:10:39;;;;;;;4.03;1.45;;;;;;;5.18;100.00;101084.00;5090694;28;20116;-82
2024/03/04 03:13:06;;;;;;;1.65;0.57;;;;;;;5.17;100.00;101088.44;5090054;28;20051;-83
2024/03/04 03:15:33;;;;;;;5.05;1.08;;;;;;;5.12;100.00;101086.13;5090946;28;20028;-82
2024/03/04 03:18:02;;;;;;;10.27;1.20;;;;;;;5.06;100.00;101096.19;5072298;28;20035;-82
2024/03/04 03:20:28;;;;;;;6.97;0.88;;;;;;;5.03;100.00;101099.88;5090235;28;20024;-82
2024/03/04 03:22:53;;;;;;;4.10;1.00;;;;;;;5.01;100.00;101096.47;5090320;28;20035;-82
2024/03/04 03:25:19;;;;;;;1.75;0.50;;;;;;;5.02;100.00;101102.63;5089931;28;20028;-82
2024/03/04 03:27:44;;;;;;;1.00;0.40;;;;;;;4.99;100.00;101102.81;5072069;28;20134;-81
2024/03/04 03:30:10;;;;;;;2.78;1.00;;;;;;;4.94;100.00;101103.94;5090125;28;20132;-82
2024/03/04 03:32:37;;;;;;;1.00;0.60;;;;;;;4.92;100.00;101105.81;5090434;28;20036;-82
2024/03/04 03:35:04;;;;;;;4.57;1.25;;;;;;;4.90;100.00;101107.72;5090689;28;20039;-81
2024/03/04 03:37:29;;;;;;;2.42;0.60;;;;;;;4.87;100.00;101109.72;5071580;28;20032;-82
2024/03/04 03:39:55;;;;;;;6.15;1.13;;;;;;;4.86;100.00;101113.28;5090299;28;20111;-82
2024/03/04 03:42:21;;;;;;;4.70;0.70;;;;;;;4.83;100.00;101116.09;5090002;28;20051;-82
2024/03/04 03:44:46;;;;;;;8.65;0.80;;;;;;;4.83;100.00;101116.09;5071890;28;20050;-81
2024/03/04 03:47:11;;;;;;;3.05;0.65;;;;;;;4.80;100.00;101118.94;5089529;28;20024;-82
2024/03/04 03:49:37;;;;;;;3.92;0.65;;;;;;;4.76;100.00;101123.53;5090085;28;20107;-82
2024/03/04 03:52:03;;;;;;;7.75;1.00;;;;;;;4.73;100.00;101126.34;5071930;28;20471;-83
2024/03/04 03:54:28;;;;;;;2.13;0.63;;;;;;;4.72;100.00;101129.97;5089783;28;20044;-82
2024/03/04 03:56:53;;;;;;;2.92;0.60;;;;;;;4.71;100.00;101125.63;5093085;28;20111;-82
2024/03/04 03:59:19;;;;;;;3.40;0.68;;;;;;;4.72;100.00;101127.31;5093817;28;20127;-83
2024/03/04 04:01:44;;;;;;;4.57;1.05;;;;;;;4.76;100.00;101128.81;5094178;28;20097;-82
2024/03/04 04:04:09;;;;;;;2.95;0.77;;;;;;;4.76;100.00;101134.06;5094043;28;20094;-82
2024/03/04 04:06:35;;;;;;;2.90;1.20;;;;;;;4.75;100.00;101138.50;5075245;28;20392;-82
2024/03/04 04:09:00;;;;;;;3.00;0.55;;;;;;;4.74;100.00;101149.16;5075552;28;20059;-81
2024/03/04 04:11:26;;;;;;;2.08;0.40;;;;;;;4.74;100.00;101151.78;5093605;28;20495;-82
2024/03/04 04:13:51;;;;;;;6.13;0.90;;;;;;;4.72;100.00;101146.59;5093992;28;20028;-82
2024/03/04 04:16:17;;;;;;;0.47;0.40;;;;;;;4.72;100.00;101145.78;5075118;28;20048;-82
2024/03/04 04:18:42;;;;;;;2.15;0.80;;;;;;;4.69;100.00;101148.59;5093783;28;20451;-82
2024/03/04 04:21:08;;;;;;;4.78;0.77;;;;;;;4.69;100.00;101149.44;5093810;28;20134;-82
2024/03/04 04:23:34;;;;;;;0.98;0.60;;;;;;;4.71;100.00;101155.44;5093729;28;20100;-83
2024/03/04 04:25:59;;;;;;;1.27;0.68;;;;;;;4.75;100.00;101156.13;5093996;28;20135;-83
2024/03/04 04:28:25;;;;;;;2.95;0.57;;;;;;;4.78;100.00;101161.22;5074904;28;20024;-82
2024/03/04 04:30:51;;;;;;;5.05;0.88;;;;;;;4.79;100.00;101160.25;5075827;28;20031;-82
2024/03/04 04:33:17;;;;;;;4.20;0.70;;;;;;;4.79;100.00;101154.97;5093293;28;20481;-81
2024/03/04 04:35:43;;;;;;;3.10;0.80;;;;;;;4.77;100.00;101151.59;5093531;28;20048;-83
2024/03/04 04:38:08;;;;;;;3.55;0.95;;;;;;;4.75;100.00;101156.97;5093524;28;20043;-83
2024/03/04 04:40:33;;;;;;;0.55;0.40;;;;;;;4.74;100.00;101162.34;5093019;28;20112;-81
2024/03/04 04:42:59;;;;;;;4.65;0.63;;;;;;;4.71;100.00;101165.16;5074877;28;20024;-81
2024/03/04 04:45:26;;;;;;;2.22;0.57;;;;;;;4.68;100.00;101162.72;5092909;28;20475;-81
2024/03/04 04:47:52;;;;;;;3.50;1.05;;;;;;;4.65;100.00;101161.09;5093158;28;20467;-82
2024/03/04 04:50:17;;;;;;;2.88;1.10;;;;;;;4.63;100.00;101159.47;5092908;28;20398;-82
2024/03/04 04:52:43;;;;;;;2.38;0.93;;;;;;;4.59;100.00;101164.94;5093353;28;20032;-82
2024/03/04 04:55:08;;;;;;;2.67;0.90;;;;;;;4.59;100.00;101158.84;5091648;28;20115;-82
2024/03/04 04:57:34;;;;;;;3.92;0.60;;;;;;;4.58;100.00;101163.28;5092695;28;20024;-82
2024/03/04 04:59:59;;;;;;;1.75;0.70;;;;;;;4.56;100.00;101151.94;5093056;28;20032;-82
2024/03/04 05:02:24;;;;;;;2.85;1.10;;;;;;;4.58;100.00;101163.28;5092481;28;20050;-82
2024/03/04 05:04:50;;;;;;;2.30;0.80;;;;;;;4.65;100.00;101170.81;5092912;28;20060;-83
2024/03/04 05:07:15;;;;;;;2.53;0.80;;;;;;;4.69;100.00;101170.53;5091920;28;20127;-82
2024/03/04 05:09:40;;;;;;;8.25;0.90;;;;;;;4.68;100.00;101168.81;5092617;28;20035;-82
2024/03/04 05:12:06;;;;;;;3.95;0.70;;;;;;;4.67;100.00;101171.53;5074716;28;20023;-82
2024/03/04 05:14:32;;;;;;;5.05;1.00;;;;;;;4.64;100.00;101171.75;5092389;28;20062;-82
2024/03/04 05:16:57;;;;;;;5.15;1.00;;;;;;;4.64;100.00;101177.00;5074619;28;20103;-82
2024/03/04 05:19:33;;;;;;;3.10;0.77;;;;;;;4.62;100.00;101177.09;5092163;28;20039;-82
2024/03/04 05:22:02;;;;;;;7.13;0.85;;;;;;;4.66;100.00;101181.25;5092730;28;20032;-83
2024/03/04 05:24:28;;;;;;;3.88;0.80;;;;;;;4.70;100.00;101184.53;5073860;28;20035;-82
2024/03/04 05:26:53;;;;;;;2.15;0.80;;;;;;;4.72;100.00;101183.50;5074353;28;20348;-82
2024/03/04 05:29:19;;;;;;;1.48;0.70;;;;;;;4.74;100.00;101172.88;5092398;28;20444;-82
2024/03/04 05:31:56;;;;;;;4.78;0.80;;;;;;;4.75;100.00;101183.31;5092208;28;20035;-82
2024/03/04 05:34:22;;;;;;;2.50;0.50;;;;;;;4.77;100.00;101185.88;5074857;28;20028;-82
2024/03/04 05:36:48;;;;;;;4.07;0.85;;;;;;;4.82;100.00;101185.59;5091946;28;20368;-81
2024/03/04 05:39:20;;;;;;;5.43;0.90;;;;;;;4.83;100.00;101188.13;5074446;28;20496;-81
2024/03/04 05:41:48;;;;;;;2.90;0.95;;;;;;;4.83;100.00;101189.94;5092136;28;20032;-81
2024/03/04 05:44:14;;;;;;;5.22;1.15;;;;;;;4.80;100.00;101190.13;5092656;28;20118;-81
2024/03/04 05:46:40;;;;;;;2.97;0.93;;;;;;;4.76;100.00;101194.72;5092332;28;20077;-81
2024/03/04 05:49:06;;;;;;;4.70;1.50;;;;;;;4.74;100.00;101194.81;5092228;28;20419;-82
2024/03/04 05:51:31;;;;;;;5.35;0.75;;;;;;;4.71;100.00;101195.00;5074072;28;20028;-83
2024/03/04 05:53:58;;;;;;;4.70;1.23;;;;;;;4.68;100.00;101195.19;5092457;28;20036;-81
2024/03/04 05:56:24;;;;;;;3.15;0.75;;;;;;;4.66;100.00;101199.72;5092611;28;20028;-81
2024/03/04 05:58:49;;;;;;;3.35;0.75;;;;;;;4.68;100.00;101195.19;5091754;28;20028;-81
2024/03/04 06:01:15;;;;;;;0.45;0.40;;;;;;;4.70;100.00;101193.31;5092086;28;20039;-81
2024/03/04 06:03:40;;;;;;;1.15;0.50;;;;;;;4.72;100.00;101199.34;5091531;28;20028;-82
2024/03/04 06:06:06;;;;;;;4.32;0.88;;;;;;;4.72;100.00;101198.50;5092094;28;20110;-81
2024/03/04 06:08:33;;;;;;;1.52;0.80;;;;;;;4.73;100.00;101205.44;5091499;28;20048;-82
2024/03/04 06:10:58;;;;;;;2.63;0.90;;;;;;;4.73;100.00;101208.06;5091978;28;20444;-82
2024/03/04 06:13:24;;;;;;;3.85;1.15;;;;;;;4.74;100.00;101200.06;5092061;28;20043;-81
2024/03/04 06:15:49;;;;;;;2.67;0.60;;;;;;;4.75;100.00;101198.31;5073303;28;20097;-83
2024/03/04 06:18:15;;;;;;;2.83;0.90;;;;;;;4.76;100.00;101202.63;5073384;28;20063;-82
2024/03/04 06:20:40;;;;;;;1.85;0.80;;;;;;;4.76;100.00;101203.50;5091440;28;20031;-83
2024/03/04 06:23:06;;;;;;;1.70;0.80;;;;;;;4.79;100.00;101202.44;5073786;28;20094;-81
2024/03/04 06:25:32;;;;;;;1.50;1.05;;;;;;;4.78;100.00;101206.03;5091281;28;20077;-81
2024/03/04 06:27:57;;;;;;;1.58;0.70;;;;;;;4.72;100.00;101209.88;5091787;28;20036;-82
2024/03/04 06:30:22;;;;;;;3.45;0.93;;;;;;;4.67;100.00;101201.41;5091757;28;20035;-81
2024/03/04 06:32:48;;;;;;;3.72;0.90;;;;;;;4.64;100.00;101206.84;5073126;28;20036;-81
2024/03/04 06:35:13;;;;;;;4.47;0.90;;;;;;;4.61;100.00;101212.28;5057007;28;20027;-81
2024/03/04 06:37:39;;;;;;;2.22;0.85;;;;;;;4.58;100.00;101204.56;5091375;28;20092;-81
2024/03/04 06:40:06;;;;;;;2.47;0.80;;;;;;;4.57;100.00;101213.44;5073034;28;20016;-81
2024/03/04 06:42:31;;;;;;;2.67;0.80;;;;;;;4.59;100.00;101219.47;5073233;28;20184;-82
2024/03/04 06:44:57;;;;;;;1.83;0.68;;;;;;;4.66;100.00;101219.94;5090967;28;20032;-82
2024/03/04 06:47:23;;;;;;;3.47;1.02;;;;;;;4.72;100.00;101222.22;5091224;28;20089;-82
2024/03/04 06:49:49;;;;;;;1.75;0.80;;;;;;;4.75;100.00;101232.59;5090962;28;20028;-83
2024/03/04 06:52:14;;;;;;;4.00;1.20;;;;;;;4.81;100.00;101234.84;5091597;28;20032;-83
2024/03/04 06:54:39;;;;;;;3.97;1.13;;;;;;;4.82;100.00;101235.69;5056064;28;20118;-82
2024/03/04 06:57:05;;;;;;;3.55;0.90;;;;;;;4.82;100.00;101243.59;5072917;28;20031;-82
2024/03/04 06:59:30;;;;;;;3.97;1.67;;;;;;;4.83;100.00;101248.78;5091251;28;20073;-82
2024/03/04 07:01:56;;;;;;;3.38;0.95;;;;;;;4.83;100.00;101264.59;5090561;28;20031;-82
2024/03/04 07:04:21;;;;;;;3.92;1.10;;;;;;;4.88;100.00;101265.19;5091632;28;20031;-82
2024/03/04 07:06:47;;;;;;;2.72;1.40;;;;;;;4.91;100.00;101272.91;5091258;28;20044;-81
2024/03/04 07:09:12;;;;;;;2.92;0.90;;;;;;;4.94;100.00;101278.00;5091505;28;20028;-81
2024/03/04 07:11:37;;;;;;;3.03;1.00;;;;;;;4.95;100.00;101270.94;5091012;28;20321;-81
2024/03/04 07:14:03;;;;;;;2.13;1.02;;;;;;;4.98;100.00;101277.81;5056159;28;20040;-81
2024/03/04 07:16:28;;;;;;;5.15;1.42;;;;;;;5.01;100.00;101277.63;5090978;28;20024;-81
2024/03/04 07:18:54;;;;;;;3.40;1.00;;;;;;;5.04;100.00;101280.91;5091003;28;20111;-81
2024/03/04 07:21:20;;;;;;;4.07;1.10;;;;;;;5.09;100.00;101294.69;5091075;28;20448;-81
2024/03/04 07:23:46;;;;;;;4.88;1.20;;;;;;;5.14;100.00;101293.56;5072652;28;20059;-81
2024/03/04 07:26:12;;;;;;;2.55;1.00;;;;;;;5.19;100.00;101289.69;5090868;28;20031;-81
2024/03/04 07:28:40;;;;;;;3.45;0.90;;;;;;;5.21;100.00;101289.59;5090286;28;20094;-81
2024/03/04 07:31:09;;;;;;;2.60;0.88;;;;;;;5.27;100.00;101291.88;5089780;28;20028;-82
2024/03/04 07:33:35;;;;;;;6.28;1.00;;;;;;;5.32;100.00;101288.97;5072737;28;20218;-82
2024/03/04 07:36:00;;;;;;;4.93;1.50;;;;;;;5.37;100.00;101300.06;5089947;28;20325;-82
2024/03/04 07:38:26;;;;;;;2.88;1.38;;;;;;;5.43;100.00;101299.69;5090379;28;20032;-79
2024/03/04 07:40:52;;;;;;;1.13;0.80;;;;;;;5.49;100.00;101296.66;5054858;28;20124;-79
2024/03/04 07:43:17;;;;;;;10.15;1.25;;;;;;;5.57;100.00;101298.81;5090400;28;20070;-80
2024/03/04 07:45:43;;;;;;;3.03;1.20;;;;;;;5.62;100.00;101294.97;5090034;28;20052;-80
2024/03/04 07:48:09;;;;;;;3.13;1.05;;;;;;;5.71;100.00;101284.78;5090183;28;20100;-80
2024/03/04 07:50:34;;;;;;;5.13;0.93;;;;;;;5.81;100.00;101297.31;5090161;28;20032;-80
2024/03/04 07:52:59;;;;;;;1.92;1.05;;;;;;;5.94;100.00;101299.16;5089934;28;20052;-79
2024/03/04 07:55:25;;;;;;;6.60;1.10;;;;;;;6.04;100.00;101295.03;5090163;28;20169;-78
2024/03/04 07:57:50;;;;;;;5.80;1.00;;;;;;;6.11;100.00;101296.31;5089657;28;20334;-81
2024/03/04 08:00:16;;;;;;;2.05;1.02;;;;;;;6.22;100.00;101300.06;5090218;28;20336;-79
2024/03/04 08:02:44;;;;;;;4.15;1.10;;;;;;;6.26;100.00;101283.91;5090099;28;20047;-83
2024/03/04 08:05:10;;;;;;;2.42;1.00;;;;;;;6.29;100.00;101281.06;5089662;28;20061;-79
2024/03/04 08:07:36;;;;;;;2.72;1.10;;;;;;;6.30;100.00;101290.69;5071617;28;20124;-79
2024/03/04 08:10:03;;;;;;;4.82;1.10;;;;;;;6.29;100.00;101301.38;5089562;28;20505;-79
2024/03/04 08:12:28;;;;;;;2.03;1.00;;;;;;;6.28;100.00;101305.78;5089484;28;20044;-79
2024/03/04 08:14:54;;;;;;;1.60;1.10;;;;;;;6.28;100.00;101305.78;5089847;28;20031;-82
2024/03/04 08:17:19;;;;;;;5.82;1.13;;;;;;;6.27;100.00;101316.47;5071360;28;20024;-80
2024/03/04 08:19:44;;;;;;;6.95;1.15;;;;;;;6.26;100.00;101320.91;5089884;28;20024;-81
2024/03/04 08:22:10;;;;;;;8.57;1.30;;;;;;;6.26;100.00;101323.56;5068547;28;20081;-81
2024/03/04 08:24:35;;;;;;;1.65;1.08;;;;;;;6.27;100.00;101319.09;5087223;28;20032;-80
2024/03/04 08:27:00;;;;;;;4.13;0.90;;;;;;;6.26;100.00;101322.72;5086741;28;20542;-79
2024/03/04 08:29:26;;;;;;;4.47;1.15;;;;;;;6.25;100.00;101326.28;5087194;28;20078;-80
2024/03/04 08:31:51;;;;;;;3.80;0.98;;;;;;;6.23;100.00;101325.56;5068266;28;20028;-84
2024/03/04 08:34:16;;;;;;;2.67;0.95;;;;;;;6.20;100.00;101326.59;5086882;28;20039;-81
2024/03/04 08:36:42;;;;;;;6.35;1.33;;;;;;;6.21;100.00;101323.03;5087446;28;20090;-80
2024/03/04 08:39:08;;;;;;;3.25;0.90;;;;;;;6.25;100.00;101331.59;5068348;28;20480;-80
2024/03/04 08:41:34;;;;;;;4.00;1.20;;;;;;;6.26;100.00;101334.13;5069208;28;20104;-79
2024/03/04 08:43:59;;;;;;;1.58;0.93;;;;;;;6.32;100.00;101332.88;5089048;28;20035;-79
2024/03/04 08:46:26;;;;;;;0.80;0.80;;;;;;;6.37;100.00;101329.94;5090550;28;20044;-79
2024/03/04 08:48:51;;;;;;;2.35;1.13;;;;;;;6.39;100.00;101322.75;5072162;28;20041;-80
2024/03/04 08:51:19;;;;;;;3.15;0.90;;;;;;;6.46;100.00;101330.16;5090234;28;20508;-79
2024/03/04 08:53:45;;;;;;;4.38;1.08;;;;;;;6.51;100.00;101328.09;5072169;28;20039;-79
2024/03/04 08:56:10;;;;;;;2.60;1.60;;;;;;;6.59;100.00;101326.75;5090370;28;20509;-80
2024/03/04 08:58:36;;;;;;;3.17;1.10;;;;;;;6.71;100.00;101328.56;5090582;28;20178;-79
2024/03/04 09:01:01;;;;;;;3.13;1.35;;;;;;;6.80;100.00;101332.41;5090018;28;20083;-79
2024/03/04 09:03:26;;;;;;;2.15;0.95;;;;;;;6.86;100.00;101332.81;5090328;28;20039;-80
2024/03/04 09:05:52;;;;;;;4.10;1.00;;;;;;;7.03;100.00;101334.34;5071903;28;20043;-80
2024/03/04 09:08:18;;;;;;;5.63;0.90;;;;;;;7.13;100.00;101331.06;5089775;28;20093;-79
2024/03/04 09:10:43;;;;;;;3.78;1.30;;;;;;;7.23;100.00;101332.16;5072050;28;20032;-80
2024/03/04 09:13:12;;;;;;;5.65;1.08;;;;;;;7.36;100.00;101335.63;5071300;28;20127;-80
2024/03/04 09:15:37;;;;;;;1.33;1.23;;;;;;;7.49;100.00;101338.25;5090099;28;20067;-78
2024/03/04 09:18:05;;;;;;;2.63;1.17;;;;;;;7.63;100.00;101339.97;5071127;28;20429;-77
2024/03/04 09:20:31;;;;;;;3.00;1.08;;;;;;;7.78;100.00;101338.03;5090512;28;20038;-77
2024/03/04 09:22:56;;;;;;;1.75;1.10;;;;;;;7.94;100.00;101343.06;5089907;28;20392;-76
2024/03/04 09:25:21;;;;;;;5.65;1.73;;;;;;;8.02;100.00;101345.19;5089921;28;20056;-77
2024/03/04 09:27:47;;;;;;;6.75;1.23;;;;;;;8.06;100.00;101344.88;5089958;28;20361;-76
2024/03/04 09:30:13;;;;;;;4.05;1.38;;;;;;;8.17;100.00;101343.25;5089229;28;20451;-77
2024/03/04 09:32:40;;;;;;;4.82;2.05;;;;;;;8.14;100.00;101343.47;5090038;28;20036;-78
2024/03/04 09:35:08;;;;;;;7.13;1.92;;;;;;;8.05;100.00;101340.50;5089020;28;20073;-77
2024/03/04 09:37:34;;;;;;;2.53;1.73;;;;;;;8.19;100.00;101343.97;5089811;28;20024;-77
2024/03/04 09:39:59;;;;;;;4.25;2.47;;;;;;;8.53;100.00;101345.03;5089666;28;20035;-77
2024/03/04 09:42:32;;;;;;;4.32;2.00;;;;;;;9.06;100.00;101339.31;5089218;28;20020;-77
2024/03/04 09:44:59;;;;;;;5.25;2.70;;;;;;;9.92;100.00;101341.56;5071358;28;20039;-79
2024/03/04 09:47:25;;;;;;;9.82;3.00;;;;;;;10.85;100.00;101337.53;5070292;28;20360;-78
2024/03/04 09:49:53;;;;;;;5.45;2.80;;;;;;;11.37;100.00;101346.44;5089509;28;20398;-78
2024/03/04 09:52:20;;;;;;;6.38;3.35;;;;;;;11.00;100.00;101346.06;5088804;28;20050;-77
2024/03/04 09:54:46;;;;;;;5.70;2.88;;;;;;;10.67;100.00;101347.91;5070746;28;20020;-78
2024/03/04 09:57:11;;;;;;;4.78;3.20;;;;;;;10.90;100.00;101340.69;5088831;28;20038;-78
2024/03/04 09:59:36;;;;;;;7.57;3.80;;;;;;;11.35;100.00;101334.25;5070671;28;20090;-77
2024/03/04 10:02:05;;;;;;;5.03;3.42;;;;;;;11.73;100.00;101340.72;5089415;28;20028;-78
2024/03/04 10:04:30;;;;;;;8.43;3.80;;;;;;;11.64;100.00;101340.56;5089297;28;20027;-77
2024/03/04 10:06:56;;;;;;;8.43;3.45;;;;;;;11.86;100.00;101341.31;5089251;28;20056;-77
2024/03/04 10:09:22;;;;;;;9.38;3.65;;;;;;;11.77;100.00;101342.13;5088735;28;20438;-77
2024/03/04 10:11:47;;;;;;;7.07;3.70;;;;;;;11.78;100.00;101341.16;5088729;28;20067;-76
2024/03/04 10:14:13;;;;;;;8.38;3.70;;;;;;;11.69;100.00;101341.94;5076047;28;20102;-77
2024/03/04 10:16:38;;;;;;;6.75;3.92;;;;;;;12.10;100.00;101338.34;5088462;28;20524;-77
2024/03/04 10:19:04;;;;;;;5.15;3.72;;;;;;;12.26;100.00;101337.81;5090797;28;20077;-76
2024/03/04 10:21:33;;;;;;;9.02;3.83;;;;;;;12.25;100.00;101344.13;5090667;28;20103;-81
2024/03/04 10:24:07;;;;;;;5.60;3.90;;;;;;;11.90;100.00;101344.59;5073139;28;20376;-77
2024/03/04 10:26:46;;;;;;;9.25;3.25;;;;;;;11.46;100.00;101343.00;5090847;28;20107;-77
2024/03/04 10:29:15;;;;;;;6.43;3.83;;;;;;;11.18;100.00;101339.19;5090113;28;20047;-77
2024/03/04 10:31:51;;;;;;;7.22;3.92;;;;;;;11.00;100.00;101343.41;5090615;28;20093;-77
2024/03/04 10:34:18;;;;;;;7.40;4.35;;;;;;;10.93;100.00;101348.41;5071740;28;20491;-77
2024/03/04 10:36:48;;;;;;;9.82;3.95;;;;;;;10.97;100.00;101344.50;5090594;28;20028;-76
2024/03/04 10:39:15;;;;;;;9.00;4.60;;;;;;;10.77;100.00;101341.69;5071823;28;20035;-75
2024/03/04 10:41:44;;;;;;;6.15;4.45;;;;;;;10.82;100.00;101348.44;5072046;28;20030;-76
2024/03/04 10:44:22;;;;;;;9.85;4.25;;;;;;;11.19;100.00;101340.03;5089963;28;20035;-77
2024/03/04 10:46:48;;;;;;;10.45;4.45;;;;;;;12.19;100.00;101342.00;5072115;28;20103;-76
2024/03/04 10:49:14;;;;;;;8.57;4.72;;;;;;;13.02;100.00;101334.44;5089837;28;20024;-75
2024/03/04 10:51:40;;;;;;;5.82;4.30;;;;;;;13.42;100.00;101339.72;5090413;28;20024;-79
2024/03/04 10:54:05;;;;;;;6.95;4.50;;;;;;;14.11;100.00;101333.09;5090560;28;20440;-77
2024/03/04 10:56:32;;;;;;;5.90;4.40;;;;;;;14.00;100.00;101334.13;5089715;28;20076;-77
2024/03/04 10:59:00;;;;;;;5.07;3.58;;;;;;;14.71;100.00;101334.38;5090455;28;20517;-77
2024/03/04 11:01:29;;;;;;;6.00;3.72;;;;;;;14.23;100.00;101334.53;5089856;28;20154;-77
2024/03/04 11:03:59;;;;;;;7.25;4.22;;;;;;;13.48;100.00;101331.13;5090396;28;20035;-76
2024/03/04 11:06:27;;;;;;;8.02;3.70;;;;;;;12.90;100.00;101334.72;5070662;28;20028;-78
2024/03/04 11:08:56;;;;;;;6.60;3.58;;;;;;;12.56;100.00;101327.19;5089850;28;20103;-77
2024/03/04 11:11:51;;;;;;;9.05;3.70;;;;;;;12.79;100.00;101325.88;5089944;28;20138;-77
2024/03/04 11:14:29;;;;;;;10.07;3.90;;;;;;;13.58;100.00;101330.13;5089760;28;20028;-77
2024/03/04 11:17:22;;;;;;;6.03;3.60;;;;;;;13.72;100.00;101334.13;5090136;28;20102;-78
2024/03/04 11:19:52;;;;;;;4.82;3.35;;;;;;;14.10;100.00;101334.06;5090160;28;20103;-78